Time;durP1;ratioP1;P1;durP2;ratioP2;P2;SDS_P1;SDS_P2;PMS_P1;PMS_P2;Temp;Humidity;BMP_temperature;BMP_pressure;BME280_temperature;BME280_humidity;BME280_pressure;Samples;Min_cycle;Max_cycle;Signal;HPM_P1;HPM_P2
2023/01/25 00:01:46;;;;;;;;;;;;;;;;;;5073197;28;19956;-58
2023/01/25 00:04:12;;;;;;;;;;;;;;;;;;5073909;28;19931;-58
2023/01/25 00:06:38;;;;;;;;;;;;;;;;;;5073076;28;19931;-58
2023/01/25 00:09:04;;;;;;;;;;;;;;;;;;5060432;28;20265;-60
2023/01/25 00:11:30;;;;;;;;;;;;;;;;;;5075101;28;20295;-60
2023/01/25 00:13:55;;;;;;;;;;;;;;;;;;5074018;28;19931;-59
2023/01/25 00:16:21;;;;;;;;;;;;;;;;;;5072663;28;19973;-58
2023/01/25 00:18:47;;;;;;;;;;;;;;;;;;5073612;28;19927;-58
2023/01/25 00:21:13;;;;;;;;;;;;;;;;;;5073063;28;20264;-59
2023/01/25 00:23:39;;;;;;;;;;;;;;;;;;5073205;28;19921;-58
2023/01/25 00:26:05;;;;;;;;;;;;;;;;;;5075024;28;19924;-58
2023/01/25 00:28:31;;;;;;;;;;;;;;;;;;5070789;28;20284;-60
2023/01/25 00:30:57;;;;;;;;;;;;;;;;;;5075121;28;19931;-58
2023/01/25 00:33:23;;;;;;;;;;;;;;;;;;5072480;28;19920;-59
2023/01/25 00:35:48;;;;;;;;;;;;;;;;;;5072458;28;19938;-60
2023/01/25 00:38:14;;;;;;;;;;;;;;;;;;5073225;28;20376;-59
2023/01/25 00:40:40;;;;;;;;;;;;;;;;;;5072596;28;20011;-59
2023/01/25 00:43:06;;;;;;;;;;;;;;;;;;5073791;28;19920;-59
2023/01/25 00:45:32;;;;;;;;;;;;;;;;;;5071664;28;20011;-60
2023/01/25 00:47:58;;;;;;;;;;;;;;;;;;5073368;28;19934;-60
2023/01/25 00:50:24;;;;;;;;;;;;;;;;;;5071976;28;19921;-58
2023/01/25 00:52:50;;;;;;;;;;;;;;;;;;5074906;28;19928;-59
2023/01/25 00:55:16;;;;;;;;;;;;;;;;;;5073280;28;20421;-58
2023/01/25 00:57:42;;;;;;;;;;;;;;;;;;5071793;28;19920;-56
2023/01/25 01:00:07;;;;;;;;;;;;;;;;;;5074359;28;19945;-57
2023/01/25 01:02:33;;;;;;;;;;;;;;;;;;5071263;28;19921;-57
2023/01/25 01:05:00;;;;;;;;;;;;;;;;;;5077667;28;20528;-56
2023/01/25 01:07:26;;;;;;;;;;;;;;;;;;5072438;28;19924;-59
2023/01/25 01:09:52;;;;;;;;;;;;;;;;;;5072460;28;20275;-57
2023/01/25 01:12:18;;;;;;;;;;;;;;;;;;5072121;28;20131;-57
2023/01/25 01:14:44;;;;;;;;;;;;;;;;;;5072399;28;19920;-59
2023/01/25 01:17:10;;;;;;;;;;;;;;;;;;5072776;28;19920;-57
2023/01/25 01:19:36;;;;;;;;;;;;;;;;;;5072516;28;19930;-58
2023/01/25 01:22:02;;;;;;;;;;;;;;;;;;5073703;28;19926;-58
2023/01/25 01:24:27;;;;;;;;;;;;;;;;;;5073706;28;19924;-59
2023/01/25 01:26:53;;;;;;;;;;;;;;;;;;5074680;28;20371;-59
2023/01/25 01:29:19;;;;;;;;;;;;;;;;;;5075644;28;20010;-57
2023/01/25 01:31:45;;;;;;;;;;;;;;;;;;5074156;28;19923;-58
2023/01/25 01:34:11;;;;;;;;;;;;;;;;;;5073496;28;19920;-57
2023/01/25 01:36:37;;;;;;;;;;;;;;;;;;5072346;28;19920;-59
2023/01/25 01:39:03;;;;;;;;;;;;;;;;;;5072805;28;19920;-57
2023/01/25 01:41:29;;;;;;;;;;;;;;;;;;5071178;28;19928;-58
2023/01/25 01:43:55;;;;;;;;;;;;;;;;;;5073076;28;20367;-59
2023/01/25 01:46:21;;;;;;;;;;;;;;;;;;5073579;28;19961;-59
2023/01/25 01:48:47;;;;;;;;;;;;;;;;;;5071798;28;19927;-58
2023/01/25 01:51:13;;;;;;;;;;;;;;;;;;5072963;28;20027;-58
2023/01/25 01:53:39;;;;;;;;;;;;;;;;;;5070060;28;20018;-57
2023/01/25 01:56:04;;;;;;;;;;;;;;;;;;5073740;28;20299;-57
2023/01/25 01:58:30;;;;;;;;;;;;;;;;;;5072900;28;19925;-57
2023/01/25 02:00:56;;;;;;;;;;;;;;;;;;5076604;28;19927;-57
2023/01/25 02:03:22;;;;;;;;;;;;;;;;;;5075432;28;20419;-59
2023/01/25 02:05:48;;;;;;;;;;;;;;;;;;5075327;28;19969;-57
2023/01/25 02:08:14;;;;;;;;;;;;;;;;;;5076500;28;19927;-57
2023/01/25 02:10:40;;;;;;;;;;;;;;;;;;5075899;28;20435;-57
2023/01/25 02:13:06;;;;;;;;;;;;;;;;;;5076563;28;19931;-57
2023/01/25 02:15:32;;;;;;;;;;;;;;;;;;5074282;28;19947;-58
2023/01/25 02:17:57;;;;;;;;;;;;;;;;;;5079583;28;20348;-57
2023/01/25 02:20:23;;;;;;;;;;;;;;;;;;5074327;28;19986;-58
2023/01/25 02:22:49;;;;;;;;;;;;;;;;;;5075763;28;19921;-57
2023/01/25 02:25:15;;;;;;;;;;;;;;;;;;5076304;28;19932;-59
2023/01/25 02:27:41;;;;;;;;;;;;;;;;;;5074244;28;19920;-57
2023/01/25 02:30:07;;;;;;;;;;;;;;;;;;5077477;28;19943;-57
2023/01/25 02:32:33;;;;;;;;;;;;;;;;;;5074271;28;20284;-59
2023/01/25 02:34:59;;;;;;;;;;;;;;;;;;5075964;28;19927;-58
2023/01/25 02:37:25;;;;;;;;;;;;;;;;;;5074451;28;19920;-57
2023/01/25 02:39:51;;;;;;;;;;;;;;;;;;5075158;28;19928;-57
2023/01/25 02:42:17;;;;;;;;;;;;;;;;;;5075178;28;20421;-59
2023/01/25 02:44:43;;;;;;;;;;;;;;;;;;5074955;28;20019;-59
2023/01/25 02:47:08;;;;;;;;;;;;;;;;;;5076562;28;19924;-57
2023/01/25 02:49:36;;;;;;;21.73;14.38;;;;;;;;;;5072286;28;19921;-57
2023/01/25 02:52:02;;;;;;;24.50;15.02;;;;;;;;;;5078257;28;20047;-58
2023/01/25 02:54:28;;;;;;;24.45;16.02;;;;;;;;;;5077226;28;20045;-57
2023/01/25 02:56:54;;;;;;;23.50;15.55;;;;;;;;;;5074488;28;20032;-58
2023/01/25 02:59:21;;;;;;;20.85;12.88;;;;;;;;;;5074298;28;20442;-60
2023/01/25 03:01:47;;;;;;;19.40;13.20;;;;;;;;;;5074083;28;20515;-59
2023/01/25 03:04:13;;;;;;;25.20;16.55;;;;;;;;;;5074684;28;20049;-57
2023/01/25 03:06:39;;;;;;;27.23;18.70;;;;;;;;;;5073920;28;20047;-57
2023/01/25 03:09:06;;;;;;;30.65;19.15;;;;;;;;;;5078749;28;20163;-58
2023/01/25 03:11:32;;;;;;;;;;;;;;;;;;5073153;28;20274;-57
2023/01/25 03:13:58;;;;;;;;;;;;;;;;;;5075647;28;19954;-57
2023/01/25 03:16:24;;;;;;;;;;;;;;;;;;5073357;28;19967;-59
2023/01/25 03:18:50;;;;;;;;;;;;;;;;;;5074335;28;19967;-59
2023/01/25 03:21:16;;;;;;;;;;;;;;;;;;5075221;28;19928;-57
2023/01/25 03:23:42;;;;;;;;;;;;;;;;;;5073264;28;19927;-60
2023/01/25 03:26:08;;;;;;;;;;;;;;;;;;5076240;28;19920;-57
2023/01/25 03:28:34;;;;;;;;;;;;;;;;;;5080165;28;19927;-59
2023/01/25 03:31:00;;;;;;;;;;;;;;;;;;5079917;28;19923;-57
2023/01/25 03:33:25;;;;;;;;;;;;;;;;;;5074039;28;20360;-57
2023/01/25 03:35:51;;;;;;;;;;;;;;;;;;5074969;28;19920;-57
2023/01/25 03:38:19;;;;;;;;;;;;;;;;;;5073541;28;19924;-58
2023/01/25 03:40:45;;;;;;;;;;;;;;;;;;5073706;28;19921;-57
2023/01/25 03:43:11;;;;;;;;;;;;;;;;;;5075102;28;19949;-58
2023/01/25 03:45:37;;;;;;;;;;;;;;;;;;5073109;28;20426;-58
2023/01/25 03:48:02;;;;;;;;;;;;;;;;;;5075142;28;19920;-57
2023/01/25 03:50:28;;;;;;;;;;;;;;;;;;5073126;28;19975;-58
2023/01/25 03:53:00;;;;;;;;;;;;;;;;;;5073931;28;19924;-59
2023/01/25 03:55:26;;;;;;;;;;;;;;;;;;5073222;28;20149;-59
2023/01/25 03:57:52;;;;;;;;;;;;;;;;;;5074061;28;19920;-58
2023/01/25 04:00:18;;;;;;;;;;;;;;;;;;5073506;28;19931;-59
2023/01/25 04:02:44;;;;;;;;;;;;;;;;;;5073650;28;19920;-58
2023/01/25 04:05:10;;;;;;;;;;;;;;;;;;5074461;28;19931;-57
2023/01/25 04:07:36;;;;;;;;;;;;;;;;;;5072681;28;19931;-59
2023/01/25 04:10:02;;;;;;;;;;;;;;;;;;5078487;28;19928;-59
2023/01/25 04:12:28;;;;;;;;;;;;;;;;;;5072898;28;19928;-57
2023/01/25 04:14:54;;;;;;;;;;;;;;;;;;5076382;28;19975;-59
2023/01/25 04:17:20;;;;;;;;;;;;;;;;;;5073487;28;19920;-57
2023/01/25 04:19:46;;;;;;;;;;;;;;;;;;5072106;28;19986;-57
2023/01/25 04:22:12;;;;;;;;;;;;;;;;;;5074365;28;19924;-57
2023/01/25 04:24:38;;;;;;;;;;;;;;;;;;5075648;28;19986;-57
2023/01/25 04:27:03;;;;;;;;;;;;;;;;;;5073814;28;20435;-59
2023/01/25 04:29:29;;;;;;;;;;;;;;;;;;5071820;28;20498;-59
2023/01/25 04:31:55;;;;;;;;;;;;;;;;;;5074273;28;19924;-57
2023/01/25 04:34:21;;;;;;;;;;;;;;;;;;5071974;28;20007;-60
2023/01/25 04:36:47;;;;;;;;;;;;;;;;;;5072904;28;19921;-58
2023/01/25 04:39:13;;;;;;;;;;;;;;;;;;5074114;28;20047;-57
2023/01/25 04:41:39;;;;;;;;;;;;;;;;;;5072617;28;19965;-57
2023/01/25 04:44:05;;;;;;;;;;;;;;;;;;5074651;28;19932;-58
2023/01/25 04:46:31;;;;;;;;;;;;;;;;;;5071388;28;19947;-59
2023/01/25 04:48:57;;;;;;;;;;;;;;;;;;5072806;28;19938;-59
2023/01/25 04:51:23;;;;;;;;;;;;;;;;;;5072572;28;19971;-59
2023/01/25 04:53:48;;;;;;;;;;;;;;;;;;5072681;28;20014;-59
2023/01/25 04:56:14;;;;;;;;;;;;;;;;;;5072984;28;19924;-57
2023/01/25 04:58:40;;;;;;;;;;;;;;;;;;5072159;28;19925;-57
2023/01/25 05:01:06;;;;;;;;;;;;;;;;;;5078846;28;19997;-58
2023/01/25 05:03:32;;;;;;;;;;;;;;;;;;5070853;28;19928;-57
2023/01/25 05:05:58;;;;;;;;;;;;;;;;;;5076309;28;19920;-59
2023/01/25 05:08:25;;;;;;;;;;;;;;;;;;5071779;28;20287;-56
2023/01/25 05:10:51;;;;;;;;;;;;;;;;;;5074424;28;19921;-58
2023/01/25 05:13:17;;;;;;;;;;;;;;;;;;5074933;28;19927;-56
2023/01/25 05:15:43;;;;;;;;;;;;;;;;;;5075239;28;19920;-57
2023/01/25 05:18:09;;;;;;;;;;;;;;;;;;5073469;28;19968;-57
2023/01/25 05:20:35;;;;;;;;;;;;;;;;;;5073888;28;19992;-58
2023/01/25 05:23:01;;;;;;;;;;;;;;;;;;5073030;28;20447;-59
2023/01/25 05:28:11;;;;;;;;;;;;;;;;;;5077398;28;19919;-58
2023/01/25 05:30:37;;;;;;;;;;;;;;;;;;5071272;28;19932;-59
2023/01/25 05:33:03;;;;;;;;;;;;;;;;;;5076356;28;19926;-57
2023/01/25 05:35:29;;;;;;;;;;;;;;;;;;5077293;28;20237;-58
2023/01/25 05:37:55;;;;;;;;;;;;;;;;;;5084705;28;19929;-59
2023/01/25 05:40:20;;;;;;;;;;;;;;;;;;5082193;28;19924;-57
2023/01/25 05:42:46;;;;;;;;;;;;;;;;;;5078407;28;19921;-57
2023/01/25 05:45:12;;;;;;;;;;;;;;;;;;5081331;28;19920;-57
2023/01/25 05:47:38;;;;;;;;;;;;;;;;;;5078685;28;20380;-57
2023/01/25 05:50:04;;;;;;;;;;;;;;;;;;5081816;28;20249;-57
2023/01/25 05:52:30;;;;;;;;;;;;;;;;;;5078075;28;19929;-57
2023/01/25 05:54:56;;;;;;;;;;;;;;;;;;5082076;28;20353;-57
2023/01/25 05:57:22;;;;;;;;;;;;;;;;;;5078911;28;20353;-57
2023/01/25 05:59:48;;;;;;;;;;;;;;;;;;5078035;28;19974;-58
2023/01/25 06:02:14;;;;;;;;;;;;;;;;;;5080422;28;19963;-57
2023/01/25 06:04:40;;;;;;;;;;;;;;;;;;5078414;28;20474;-57
2023/01/25 06:07:05;;;;;;;;;;;;;;;;;;5079475;28;19924;-59
2023/01/25 06:09:31;;;;;;;;;;;;;;;;;;5077512;28;19920;-59
2023/01/25 06:11:57;;;;;;;;;;;;;;;;;;5079160;28;20372;-57
2023/01/25 06:14:23;;;;;;;;;;;;;;;;;;5082337;28;19973;-57
2023/01/25 06:16:49;;;;;;;;;;;;;;;;;;5081003;28;19920;-58
2023/01/25 06:19:16;;;;;;;;;;;;;;;;;;5080828;28;19962;-57
2023/01/25 06:21:42;;;;;;;;;;;;;;;;;;5078250;28;20403;-57
2023/01/25 06:24:08;;;;;;;;;;;;;;;;;;5084030;28;20074;-57
2023/01/25 06:26:34;;;;;;;;;;;;;;;;;;5077110;28;20376;-57
2023/01/25 06:29:00;;;;;;;;;;;;;;;;;;5079340;28;19923;-57
2023/01/25 06:31:26;;;;;;;;;;;;;;;;;;5078300;28;19927;-57
2023/01/25 06:33:52;;;;;;;;;;;;;;;;;;5077712;28;19920;-59
2023/01/25 06:36:18;;;;;;;;;;;;;;;;;;5078970;28;19920;-57
2023/01/25 06:38:44;;;;;;;;;;;;;;;;;;5079676;28;19945;-57
2023/01/25 06:41:10;;;;;;;;;;;;;;;;;;5081363;28;19920;-57
2023/01/25 06:43:36;;;;;;;;;;;;;;;;;;5081651;28;19921;-59
2023/01/25 06:46:02;;;;;;;;;;;;;;;;;;5076972;28;19920;-57
2023/01/25 06:48:28;;;;;;;;;;;;;;;;;;5074200;28;19944;-57
2023/01/25 06:50:54;;;;;;;;;;;;;;;;;;5075220;28;19928;-57
2023/01/25 06:53:20;;;;;;;;;;;;;;;;;;5076300;28;19920;-57
2023/01/25 06:55:45;;;;;;;;;;;;;;;;;;5074130;28;19931;-57
2023/01/25 06:58:11;;;;;;;;;;;;;;;;;;5076057;28;19924;-57
2023/01/25 07:00:37;;;;;;;;;;;;;;;;;;5074308;28;20386;-57
2023/01/25 07:03:03;;;;;;;;;;;;;;;;;;5078466;28;19931;-59
2023/01/25 07:05:29;;;;;;;;;;;;;;;;;;5074137;28;19928;-58
2023/01/25 07:07:55;;;;;;;;;;;;;;;;;;5077304;28;20294;-58
2023/01/25 07:10:21;;;;;;;;;;;;;;;;;;5077659;28;19920;-57
2023/01/25 07:12:47;;;;;;;;;;;;;;;;;;5079018;28;19920;-59
2023/01/25 07:15:13;;;;;;;;;;;;;;;;;;5082657;28;19953;-57
2023/01/25 07:17:38;;;;;;;;;;;;;;;;;;5084452;28;19924;-57
2023/01/25 07:20:04;;;;;;;;;;;;;;;;;;5080773;28;19924;-57
2023/01/25 07:22:30;;;;;;;;;;;;;;;;;;5078488;28;19935;-58
2023/01/25 07:24:57;;;;;;;;;;;;;;;;;;5079420;28;20417;-58
2023/01/25 07:27:23;;;;;;;;;;;;;;;;;;5076711;28;20050;-57
2023/01/25 07:29:49;;;;;;;;;;;;;;;;;;5078026;28;20578;-57
2023/01/25 07:32:15;;;;;;;;;;;;;;;;;;5078913;28;19965;-57
2023/01/25 07:34:41;;;;;;;;;;;;;;;;;;5079152;28;19931;-57
2023/01/25 07:37:08;;;;;;;;;;;;;;;;;;5078244;28;19920;-56
2023/01/25 07:39:35;;;;;;;;;;;;;;;;;;5080182;28;20002;-55
2023/01/25 07:42:01;;;;;;;;;;;;;;;;;;5080064;28;19920;-58
2023/01/25 07:44:27;;;;;;;;;;;;;;;;;;5084188;28;19920;-59
2023/01/25 07:46:53;;;;;;;;;;;;;;;;;;5078519;28;20288;-57
2023/01/25 07:49:19;;;;;;;;;;;;;;;;;;5078351;28;19930;-56
2023/01/25 07:51:45;;;;;;;;;;;;;;;;;;5080334;28;20003;-56
2023/01/25 07:54:11;;;;;;;;;;;;;;;;;;5068797;28;19924;-56
2023/01/25 07:56:39;;;;;;;;;;;;;;;;;;5077597;28;19931;-58
2023/01/25 07:59:07;;;;;;;;;;;;;;;;;;5077838;28;19920;-57
2023/01/25 08:01:33;;;;;;;;;;;;;;;;;;5078694;28;19955;-56
2023/01/25 08:03:59;;;;;;;;;;;;;;;;;;5077712;28;19982;-56
2023/01/25 08:06:26;;;;;;;;;;;;;;;;;;5076456;28;19920;-56
2023/01/25 08:08:52;;;;;;;;;;;;;;;;;;5077178;28;19935;-56
2023/01/25 08:11:17;;;;;;;;;;;;;;;;;;5075888;28;19924;-56
2023/01/25 08:13:45;;;;;;;;;;;;;;;;;;5076171;28;19946;-56
2023/01/25 08:16:10;;;;;;;;;;;;;;;;;;5079672;28;19943;-56
2023/01/25 08:18:36;;;;;;;;;;;;;;;;;;5075320;28;20344;-59
2023/01/25 08:21:02;;;;;;;;;;;;;;;;;;5078479;28;19924;-56
2023/01/25 08:23:28;;;;;;;;;;;;;;;;;;5072798;28;19989;-56
2023/01/25 08:25:55;;;;;;;;;;;;;;;;;;5073390;28;19981;-56
2023/01/25 08:28:21;;;;;;;;;;;;;;;;;;5074868;28;20387;-56
2023/01/25 08:30:47;;;;;;;;;;;;;;;;;;5073705;28;19956;-58
2023/01/25 08:33:13;;;;;;;;;;;;;;;;;;5074482;28;20376;-56
2023/01/25 08:35:39;;;;;;;;;;;;;;;;;;5072535;28;19932;-56
2023/01/25 08:38:04;;;;;;;;;;;;;;;;;;5072185;28;19924;-56
2023/01/25 08:40:30;;;;;;;;;;;;;;;;;;5073072;28;20018;-56
2023/01/25 08:42:56;;;;;;;;;;;;;;;;;;5076046;28;19973;-56
2023/01/25 08:45:22;;;;;;;;;;;;;;;;;;5084454;28;19924;-56
2023/01/25 08:47:48;;;;;;;;;;;;;;;;;;5071638;28;20148;-57
2023/01/25 08:50:15;;;;;;;;;;;;;;;;;;5079372;28;19920;-56
2023/01/25 08:52:41;;;;;;;;;;;;;;;;;;5085570;28;19924;-56
2023/01/25 08:55:06;;;;;;;;;;;;;;;;;;5085418;28;20303;-55
2023/01/25 08:57:32;;;;;;;;;;;;;;;;;;5085162;28;20362;-56
2023/01/25 08:59:58;;;;;;;;;;;;;;;;;;5085478;28;19931;-56
2023/01/25 09:02:24;;;;;;;;;;;;;;;;;;5084441;28;20020;-56
2023/01/25 09:04:50;;;;;;;;;;;;;;;;;;5085236;28;19967;-56
2023/01/25 09:07:16;;;;;;;;;;;;;;;;;;5085142;28;19927;-58
2023/01/25 09:09:42;;;;;;;;;;;;;;;;;;5085741;28;19924;-56
2023/01/25 09:12:08;;;;;;;;;;;;;;;;;;5086666;28;19920;-55
2023/01/25 09:14:34;;;;;;;;;;;;;;;;;;5086393;28;19963;-56
2023/01/25 09:17:00;;;;;;;;;;;;;;;;;;5081125;28;19967;-58
2023/01/25 09:19:25;;;;;;;;;;;;;;;;;;5077903;28;20403;-56
2023/01/25 09:21:51;;;;;;;;;;;;;;;;;;5077891;28;19920;-56
2023/01/25 09:24:17;;;;;;;;;;;;;;;;;;5074394;28;19920;-56
2023/01/25 09:26:43;;;;;;;;;;;;;;;;;;5078551;28;19955;-58
2023/01/25 09:29:10;;;;;;;;;;;;;;;;;;5085807;28;19969;-53
2023/01/25 09:31:38;;;;;;;;;;;;;;;;;;5082122;28;19924;-56
2023/01/25 09:34:04;;;;;;;;;;;;;;;;;;5073770;28;20408;-57
2023/01/25 09:36:30;;;;;;;;;;;;;;;;;;5065446;28;19920;-56
2023/01/25 09:38:56;;;;;;;;;;;;;;;;;;5066440;28;19921;-56
2023/01/25 09:41:22;;;;;;;;;;;;;;;;;;5067114;28;19920;-56
2023/01/25 09:43:48;;;;;;;;;;;;;;;;;;5083372;28;20018;-57
2023/01/25 09:46:14;;;;;;;;;;;;;;;;;;5073181;28;19927;-56
2023/01/25 09:48:40;;;;;;;;;;;;;;;;;;5081237;28;19928;-56
2023/01/25 09:51:06;;;;;;;;;;;;;;;;;;5080169;28;19923;-58
2023/01/25 09:53:32;;;;;;;;;;;;;;;;;;5083388;28;19977;-55
2023/01/25 09:55:58;;;;;;;;;;;;;;;;;;5085536;28;19923;-56
2023/01/25 09:58:23;;;;;;;;;;;;;;;;;;5076716;28;20287;-56
2023/01/25 10:00:49;;;;;;;;;;;;;;;;;;5085058;28;19993;-55
2023/01/25 10:03:15;;;;;;;;;;;;;;;;;;5083220;28;20460;-56
2023/01/25 10:05:41;;;;;;;;;;;;;;;;;;5084485;28;20020;-56
2023/01/25 10:08:07;;;;;;;;;;;;;;;;;;5085556;28;19931;-58
2023/01/25 10:10:33;;;;;;;;;;;;;;;;;;5082367;28;19921;-55
2023/01/25 10:12:59;;;;;;;;;;;;;;;;;;5082189;28;20455;-57
2023/01/25 10:15:25;;;;;;;;;;;;;;;;;;5083276;28;19920;-56
2023/01/25 10:17:53;;;;;;;;;;;;;;;;;;5085147;28;19927;-55
2023/01/25 10:20:19;;;;;;;;;;;;;;;;;;5085812;28;19928;-57
2023/01/25 10:22:45;;;;;;;;;;;;;;;;;;5079715;28;19925;-61
2023/01/25 10:25:12;;;;;;;;;;;;;;;;;;5084473;28;20038;-56
2023/01/25 10:27:38;;;;;;;;;;;;;;;;;;5077861;28;19920;-59
2023/01/25 10:30:04;;;;;;;;;;;;;;;;;;5077813;28;20006;-56
2023/01/25 10:32:31;;;;;;;;;;;;;;;;;;5084213;28;19928;-56
2023/01/25 10:34:57;;;;;;;;;;;;;;;;;;5068512;28;20187;-56
2023/01/25 10:37:23;;;;;;;;;;;;;;;;;;5068614;28;20016;-58
2023/01/25 10:39:49;;;;;;;;;;;;;;;;;;5082057;28;20014;-56
2023/01/25 10:42:15;;;;;;;;;;;;;;;;;;5079133;28;19998;-56
2023/01/25 10:44:40;;;;;;;;;;;;;;;;;;5073705;28;19921;-58
2023/01/25 10:47:06;;;;;;;;;;;;;;;;;;5088366;28;19920;-56
2023/01/25 10:49:32;;;;;;;;;;;;;;;;;;5088563;28;20432;-58
2023/01/25 10:51:58;;;;;;;;;;;;;;;;;;5082806;28;19973;-57
2023/01/25 10:54:24;;;;;;;;;;;;;;;;;;5080906;28;19931;-56
2023/01/25 10:56:50;;;;;;;;;;;;;;;;;;5087390;28;20359;-59
2023/01/25 10:59:16;;;;;;;;;;;;;;;;;;5087237;28;19973;-58
2023/01/25 11:01:42;;;;;;;;;;;;;;;;;;5085598;28;20460;-58
2023/01/25 11:04:08;;;;;;;;;;;;;;;;;;5086080;28;19949;-56
2023/01/25 11:06:34;;;;;;;;;;;;;;;;;;5085052;28;19920;-58
2023/01/25 11:09:00;;;;;;;;;;;;;;;;;;5081448;28;20323;-57
2023/01/25 11:11:25;;;;;;;;;;;;;;;;;;5086104;28;19920;-55
2023/01/25 11:13:53;;;;;;;;;;;;;;;;;;5082399;28;19970;-56
2023/01/25 11:16:19;;;;;;;;;;;;;;;;;;5084526;28;19928;-57
2023/01/25 11:18:45;;;;;;;;;;;;;;;;;;5088094;28;19924;-58
2023/01/25 11:21:11;;;;;;;;;;;;;;;;;;5085216;28;19924;-56
2023/01/25 11:23:37;;;;;;;;;;;;;;;;;;5086762;28;20264;-56
2023/01/25 11:26:03;;;;;;;;;;;;;;;;;;5086957;28;19964;-56
2023/01/25 11:28:29;;;;;;;;;;;;;;;;;;5086312;28;19976;-54
2023/01/25 11:30:55;;;;;;;;;;;;;;;;;;5086384;28;19920;-56
2023/01/25 11:33:20;;;;;;;;;;;;;;;;;;5085867;28;19965;-56
2023/01/25 11:35:46;;;;;;;;;;;;;;;;;;5085355;28;19930;-56
2023/01/25 11:38:12;;;;;;;;;;;;;;;;;;5067363;28;20291;-58
2023/01/25 11:40:38;;;;;;;;;;;;;;;;;;5086476;28;19931;-56
2023/01/25 11:43:04;;;;;;;;;;;;;;;;;;5085952;28;19924;-56
2023/01/25 11:45:30;;;;;;;;;;;;;;;;;;5086444;28;20398;-58
2023/01/25 11:47:56;;;;;;;;;;;;;;;;;;5068607;28;19970;-56
2023/01/25 11:50:22;;;;;;;;;;;;;;;;;;5087091;28;20049;-57
2023/01/25 11:52:48;;;;;;;;;;;;;;;;;;5076119;28;19932;-56
2023/01/25 11:55:14;;;;;;;;;;;;;;;;;;5069371;28;19924;-57
2023/01/25 11:57:40;;;;;;;;;;;;;;;;;;5083391;28;19977;-55
2023/01/25 12:00:06;;;;;;;;;;;;;;;;;;5074979;28;19977;-56
2023/01/25 12:02:32;;;;;;;;;;;;;;;;;;5077588;28;19980;-56
2023/01/25 12:04:57;;;;;;;;;;;;;;;;;;5086575;28;20376;-58
2023/01/25 12:07:23;;;;;;;;;;;;;;;;;;5087092;28;19924;-56
2023/01/25 12:09:50;;;;;;;;;;;;;;;;;;5087862;28;19943;-56
2023/01/25 12:12:15;;;;;;;;;;;;;;;;;;5086771;28;19924;-57
2023/01/25 12:14:41;;;;;;;;;;;;;;;;;;5087462;28;20473;-56
2023/01/25 12:17:07;;;;;;;;;;;;;;;;;;5088195;28;19931;-56
2023/01/25 12:19:33;;;;;;;;;;;;;;;;;;5079663;28;19924;-56
2023/01/25 12:21:59;;;;;;;;;;;;;;;;;;5066844;28;20471;-56
2023/01/25 12:24:25;;;;;;;;;;;;;;;;;;5072798;28;19963;-56
2023/01/25 12:26:51;;;;;;;;;;;;;;;;;;5085790;28;20011;-56
2023/01/25 12:29:17;;;;;;;;;;;;;;;;;;5080707;28;19931;-56
2023/01/25 12:31:43;;;;;;;;;;;;;;;;;;5079776;28;19928;-56
2023/01/25 12:34:09;;;;;;;;;;;;;;;;;;5086444;28;19932;-56
2023/01/25 12:36:35;;;;;;;;;;;;;;;;;;5086111;28;20022;-58
2023/01/25 12:39:01;;;;;;;;;;;;;;;;;;5085656;28;19935;-56
2023/01/25 12:41:27;;;;;;;;;;;;;;;;;;5079912;28;19928;-56
2023/01/25 12:43:53;;;;;;;;;;;;;;;;;;5070332;28;20375;-56
2023/01/25 12:46:19;;;;;;;;;;;;;;;;;;5086044;28;19924;-55
2023/01/25 12:48:46;;;;;;;;;;;;;;;;;;5086397;28;19928;-56
2023/01/25 12:51:12;;;;;;;;;;;;;;;;;;5065078;28;19925;-58
2023/01/25 12:53:38;;;;;;;;;;;;;;;;;;5066557;28;20207;-55
2023/01/25 12:56:04;;;;;;;;;;;;;;;;;;5066631;28;19977;-55
2023/01/25 12:58:30;;;;;;;;;;;;;;;;;;5066026;28;20493;-55
2023/01/25 13:00:55;;;;;;;;;;;;;;;;;;5065670;28;19925;-57
2023/01/25 13:03:21;;;;;;;;;;;;;;;;;;5066400;28;19981;-56
2023/01/25 13:05:47;;;;;;;;;;;;;;;;;;5066321;28;19972;-56
2023/01/25 13:08:14;;;;;;;;;;;;;;;;;;5065312;28;20019;-56
2023/01/25 13:10:40;;;;;;;;;;;;;;;;;;5066215;28;19924;-56
2023/01/25 13:13:06;;;;;;;;;;;;;;;;;;5066657;28;19931;-56
2023/01/25 13:15:32;;;;;;;;;;;;;;;;;;5065313;28;19925;-56
2023/01/25 13:17:58;;;;;;;;;;;;;;;;;;5066205;28;20376;-56
2023/01/25 13:20:24;;;;;;;;;;;;;;;;;;5065995;28;19925;-56
2023/01/25 13:22:52;;;;;;;;;;;;;;;;;;5065444;28;19924;-56
2023/01/25 13:25:18;;;;;;;;;;;;;;;;;;5065923;28;20307;-56
2023/01/25 13:27:44;;;;;;;;;;;;;;;;;;5066330;28;19932;-55
2023/01/25 13:30:10;;;;;;;;;;;;;;;;;;5065219;28;19925;-56
2023/01/25 13:32:36;;;;;;;;;;;;;;;;;;5066430;28;20296;-56
2023/01/25 13:35:02;;;;;;;;;;;;;;;;;;5065464;28;19931;-59
2023/01/25 13:37:28;;;;;;;;;;;;;;;;;;5066342;28;19997;-56
2023/01/25 13:39:54;;;;;;;;;;;;;;;;;;5065935;28;20396;-56
2023/01/25 13:42:21;;;;;;;;;;;;;;;;;;5065018;28;19925;-56
2023/01/25 13:44:46;;;;;;;;;;;;;;;;;;5066118;28;19924;-58
2023/01/25 13:47:12;;;;;;;;;;;;;;;;;;5065968;28;20027;-56
2023/01/25 13:49:38;;;;;;;;;;;;;;;;;;5065505;28;20416;-55
2023/01/25 13:52:04;;;;;;;;;;;;;;;;;;5066034;28;19924;-56
2023/01/25 13:54:30;;;;;;;;;;;;;;;;;;5067689;28;19936;-56
2023/01/25 13:56:56;;;;;;;;;;;;;;;;;;5068830;28;19990;-56
2023/01/25 13:59:22;;;;;;;;;;;;;;;;;;5074776;28;19924;-56
2023/01/25 14:01:48;;;;;;;;;;;;;;;;;;5084112;28;19924;-56
2023/01/25 14:04:14;;;;;;;;;;;;;;;;;;5077451;28;20035;-58
2023/01/25 14:06:39;;;;;;;;;;;;;;;;;;5069919;28;20023;-56
2023/01/25 14:09:07;;;;;;;;;;;;;;;;;;5085939;28;19930;-57
2023/01/25 14:11:33;;;;;;;;;;;;;;;;;;5087496;28;19928;-55
2023/01/25 14:13:59;;;;;;;;;;;;;;;;;;5089671;28;20676;-57
2023/01/25 14:16:26;;;;;;;;;;;;;;;;;;5089524;28;19935;-56
2023/01/25 14:18:52;;;;;;;;;;;;;;;;;;5082650;28;20414;-56
2023/01/25 14:21:18;;;;;;;;;;;;;;;;;;5086136;28;19924;-56
2023/01/25 14:23:44;;;;;;;;;;;;;;;;;;5079994;28;20011;-58
2023/01/25 14:26:09;;;;;;;;;;;;;;;;;;5080958;28;19932;-56
2023/01/25 14:28:35;;;;;;;;;;;;;;;;;;5081643;28;19928;-56
2023/01/25 14:31:01;;;;;;;;;;;;;;;;;;5084900;28;19940;-54
2023/01/25 14:33:27;;;;;;;;;;;;;;;;;;5076332;28;20376;-56
2023/01/25 14:35:53;;;;;;;;;;;;;;;;;;5080644;28;19928;-56
2023/01/25 14:38:19;;;;;;;;;;;;;;;;;;5078215;28;20357;-56
2023/01/25 14:40:45;;;;;;;;;;;;;;;;;;5067166;28;20007;-56
2023/01/25 14:43:11;;;;;;;;;;;;;;;;;;5087763;28;19924;-56
2023/01/25 14:45:37;;;;;;;;;;;;;;;;;;5087462;28;20073;-56
2023/01/25 14:48:03;;;;;;;;;;;;;;;;;;5080980;28;20271;-56
2023/01/25 14:50:29;;;;;;;;;;;;;;;;;;5088939;28;19940;-56
2023/01/25 14:52:54;;;;;;;;;;;;;;;;;;5087918;28;19931;-55
2023/01/25 14:55:20;;;;;;;;;;;;;;;;;;5088432;28;20371;-55
2023/01/25 14:57:48;;;;;;;;;;;;;;;;;;5083805;28;20082;-56
2023/01/25 15:00:14;;;;;;;;;;;;;;;;;;5073088;28;19938;-56
2023/01/25 15:02:39;;;;;;;;;;;;;;;;;;5085074;28;19928;-56
2023/01/25 15:05:05;;;;;;;;;;;;;;;;;;5084800;28;19930;-56
2023/01/25 15:07:31;;;;;;;;;;;;;;;;;;5070346;28;20650;-56
2023/01/25 15:09:57;;;;;;;;;;;;;;;;;;5074352;28;20380;-58
2023/01/25 15:12:23;;;;;;;;;;;;;;;;;;5085289;28;20125;-56
2023/01/25 15:14:49;;;;;;;;;;;;;;;;;;5076694;28;20383;-56
2023/01/25 15:17:15;;;;;;;;;;;;;;;;;;5075096;28;19928;-56
2023/01/25 15:19:41;;;;;;;;;;;;;;;;;;5080521;28;19929;-58
2023/01/25 15:22:07;;;;;;;;;;;;;;;;;;5076562;28;19928;-56
2023/01/25 15:24:33;;;;;;;;;;;;;;;;;;5075276;28;22158;-56
2023/01/25 15:26:59;;;;;;;;;;;;;;;;;;5075942;28;20402;-56
2023/01/25 15:29:28;;;;;;;;;;;;;;;;;;5078474;28;19931;-59
2023/01/25 15:31:54;;;;;;;;;;;;;;;;;;5074322;28;20395;-56
2023/01/25 15:34:20;;;;;;;;;;;;;;;;;;5076105;28;19928;-56
2023/01/25 15:36:45;;;;;;;;;;;;;;;;;;5075779;28;19925;-58
2023/01/25 15:39:12;;;;;;;;;;;;;;;;;;5079083;28;19929;-59
2023/01/25 15:41:38;;;;;;;;;;;;;;;;;;5073008;28;20007;-57
2023/01/25 15:44:04;;;;;;;;;;;;;;;;;;5072930;28;20451;-57
2023/01/25 15:46:32;;;;;;;;;;;;;;;;;;5082572;28;19928;-56
2023/01/25 15:48:58;;;;;;;;;;;;;;;;;;5078963;28;20596;-56
2023/01/25 15:51:24;;;;;;;;;;;;;;;;;;5077472;28;20003;-56
2023/01/25 15:53:49;;;;;;;;;;;;;;;;;;5071258;28;19928;-57
2023/01/25 15:56:15;;;;;;;;;;;;;;;;;;5083885;28;19924;-59
2023/01/25 15:58:41;;;;;;;;;;;;;;;;;;5076580;28;19928;-56
2023/01/25 16:01:07;;;;;;;;;;;;;;;;;;5079911;28;20015;-57
2023/01/25 16:03:33;;;;;;;;;;;;;;;;;;5074308;28;19924;-56
2023/01/25 16:05:59;;;;;;;;;;;;;;;;;;5075989;28;20500;-57
2023/01/25 16:08:25;;;;;;;;;;;;;;;;;;5073115;28;19931;-57
2023/01/25 16:10:51;;;;;;;;;;;;;;;;;;5077648;28;19931;-57
2023/01/25 16:13:17;;;;;;;;;;;;;;;;;;5080282;28;19969;-57
2023/01/25 16:15:43;;;;;;;;;;;;;;;;;;5080294;28;19994;-58
2023/01/25 16:18:09;;;;;;;;;;;;;;;;;;5086752;28;20028;-56
2023/01/25 16:20:34;;;;;;;;;;;;;;;;;;5073679;28;19924;-57
2023/01/25 16:23:00;;;;;;;;;;;;;;;;;;5075791;28;20390;-57
2023/01/25 16:25:26;;;;;;;;;;;;;;;;;;5081212;28;20019;-56
2023/01/25 16:27:52;;;;;;;;;;;;;;;;;;5075435;28;19924;-57
2023/01/25 16:30:18;;;;;;;;;;;;;;;;;;5075124;28;19925;-56
2023/01/25 16:32:45;;;;;;;;;;;;;;;;;;5073290;28;19924;-56
2023/01/25 16:35:11;;;;;;;;;;;;;;;;;;5074537;28;19928;-58